Time;durP1;ratioP1;P1;durP2;ratioP2;P2;SDS_P1;SDS_P2;PMS_P1;PMS_P2;Temp;Humidity;BMP_temperature;BMP_pressure;BME280_temperature;BME280_humidity;BME280_pressure;Samples;Min_cycle;Max_cycle;Signal;HPM_P1;HPM_P2
2022/05/05 00:00:43;;;;;;;17.38;9.45;;;;;;;;;;5073724;28;20039;-84
2022/05/05 00:03:08;;;;;;;14.50;10.05;;;;;;;;;;5072473;28;20058;-85
2022/05/05 00:05:34;;;;;;;12.98;9.52;;;;;;;;;;5055714;28;20513;-85
2022/05/05 00:07:59;;;;;;;14.05;10.27;;;;;;;;;;5055768;28;20050;-84
2022/05/05 00:15:54;;;;;;;17.50;9.85;;;;;;;;;;5074818;28;20109;-86
2022/05/05 00:18:19;;;;;;;14.20;10.15;;;;;;;;;;5074354;28;20021;-85
2022/05/05 00:20:45;;;;;;;12.68;9.70;;;;;;;;;;5055971;28;20024;-84
2022/05/05 00:23:10;;;;;;;13.35;10.15;;;;;;;;;;5056449;28;20028;-85
2022/05/05 00:25:36;;;;;;;15.38;10.13;;;;;;;;;;5073606;28;20040;-85
2022/05/05 00:28:02;;;;;;;14.73;10.77;;;;;;;;;;5074707;28;20052;-84
2022/05/05 00:30:27;;;;;;;15.82;10.70;;;;;;;;;;5074258;28;20043;-86
2022/05/05 00:32:53;;;;;;;15.13;11.05;;;;;;;;;;5052970;28;20076;-86
2022/05/05 00:35:18;;;;;;;15.60;10.45;;;;;;;;;;5054014;28;20033;-86
2022/05/05 00:37:44;;;;;;;16.15;11.57;;;;;;;;;;5053103;28;20376;-86
2022/05/05 00:40:10;;;;;;;19.40;12.27;;;;;;;;;;5036069;28;20025;-85
2022/05/05 00:42:36;;;;;;;15.40;10.85;;;;;;;;;;5035871;28;20029;-85
2022/05/05 00:45:03;;;;;;;18.00;11.50;;;;;;;;;;5052108;28;20033;-86
2022/05/05 00:47:28;;;;;;;16.80;12.15;;;;;;;;;;5035790;28;20029;-86
2022/05/05 00:49:54;;;;;;;12.23;10.38;;;;;;;;;;5054057;28;20053;-87
2022/05/05 00:52:20;;;;;;;15.93;12.02;;;;;;;;;;5035296;28;20083;-87
2022/05/05 00:54:45;;;;;;;19.83;10.90;;;;;;;;;;5052012;28;20043;-85
2022/05/05 00:57:19;;;;;;;18.35;12.13;;;;;;;;;;5053933;28;20393;-84
2022/05/05 00:59:44;;;;;;;16.02;11.80;;;;;;;;;;5034941;28;20453;-87
2022/05/05 01:02:12;;;;;;;14.73;12.40;;;;;;;;;;5055007;28;20059;-85
2022/05/05 01:04:38;;;;;;;17.27;12.13;;;;;;;;;;5035702;28;20068;-85
2022/05/05 01:07:03;;;;;;;17.17;11.60;;;;;;;;;;5035502;28;20040;-85
2022/05/05 01:09:29;;;;;;;18.48;11.85;;;;;;;;;;5035170;28;20068;-87
2022/05/05 01:11:55;;;;;;;17.70;11.90;;;;;;;;;;5053738;28;20037;-83
2022/05/05 01:14:21;;;;;;;17.00;12.10;;;;;;;;;;5051331;28;20071;-87
2022/05/05 01:16:47;;;;;;;17.80;11.65;;;;;;;;;;5053948;28;20025;-86
2022/05/05 01:19:12;;;;;;;21.35;12.73;;;;;;;;;;5053666;28;20036;-85
2022/05/05 01:21:38;;;;;;;15.48;11.45;;;;;;;;;;5035936;28;20429;-85
2022/05/05 01:24:04;;;;;;;16.45;11.55;;;;;;;;;;5053074;28;20025;-86
2022/05/05 01:29:14;;;;;;;16.90;11.40;;;;;;;;;;5053563;28;20035;-85
2022/05/05 01:31:40;;;;;;;17.90;12.00;;;;;;;;;;5059583;28;20047;-86
2022/05/05 01:34:06;;;;;;;16.23;12.02;;;;;;;;;;5073410;28;20424;-85
2022/05/05 01:36:31;;;;;;;15.63;11.27;;;;;;;;;;5072947;28;20034;-87
2022/05/05 01:38:57;;;;;;;15.75;11.73;;;;;;;;;;5072863;28;20115;-86
2022/05/05 01:41:23;;;;;;;17.98;11.65;;;;;;;;;;5055998;28;20021;-86
2022/05/05 01:43:49;;;;;;;21.58;11.93;;;;;;;;;;5076398;28;20460;-86
2022/05/05 01:46:14;;;;;;;17.85;12.40;;;;;;;;;;5059686;28;20032;-87
2022/05/05 01:48:40;;;;;;;22.45;12.65;;;;;;;;;;5058821;28;20013;-87
2022/05/05 01:51:05;;;;;;;21.48;12.32;;;;;;;;;;5076430;28;20101;-85
2022/05/05 01:53:38;;;;;;;18.00;12.80;;;;;;;;;;5073973;28;20024;-84
2022/05/05 01:56:12;;;;;;;18.80;11.80;;;;;;;;;;5035733;28;20033;-85
2022/05/05 01:58:44;;;;;;;16.23;11.25;;;;;;;;;;5044984;28;20059;-84
2022/05/05 02:01:11;;;;;;;17.90;12.88;;;;;;;;;;5058468;28;20115;-85
2022/05/05 02:03:36;;;;;;;22.52;12.93;;;;;;;;;;5077166;28;20032;-85
2022/05/05 02:06:02;;;;;;;15.82;12.20;;;;;;;;;;5076645;28;20499;-86
2022/05/05 02:08:27;;;;;;;17.30;12.05;;;;;;;;;;5057825;28;20040;-87
2022/05/05 02:10:53;;;;;;;16.45;12.60;;;;;;;;;;5057684;28;20024;-86
2022/05/05 02:13:20;;;;;;;19.33;13.27;;;;;;;;;;5076275;28;20064;-86
2022/05/05 02:15:46;;;;;;;18.23;12.63;;;;;;;;;;5057546;28;20078;-87
2022/05/05 02:18:12;;;;;;;18.20;11.60;;;;;;;;;;5076107;28;20024;-85
2022/05/05 02:20:39;;;;;;;17.33;12.43;;;;;;;;;;5057915;28;20115;-84
2022/05/05 02:23:06;;;;;;;16.58;12.48;;;;;;;;;;5058435;28;20033;-85
2022/05/05 02:25:32;;;;;;;17.48;12.15;;;;;;;;;;5075746;28;20028;-86
2022/05/05 02:27:58;;;;;;;18.80;13.55;;;;;;;;;;5076136;28;20112;-84
2022/05/05 02:30:24;;;;;;;19.55;11.77;;;;;;;;;;5075187;28;20048;-85
2022/05/05 02:32:50;;;;;;;19.50;12.52;;;;;;;;;;5058520;28;20083;-86
2022/05/05 02:35:18;;;;;;;17.45;13.13;;;;;;;;;;5076350;28;20041;-85
2022/05/05 02:40:27;;;;;;;23.05;12.95;;;;;;;;;;5075913;28;20084;-83
2022/05/05 02:42:57;;;;;;;18.75;13.38;;;;;;;;;;5057598;28;20028;-86
2022/05/05 02:45:23;;;;;;;18.67;13.65;;;;;;;;;;5057144;28;20052;-84
2022/05/05 02:47:49;;;;;;;17.55;13.02;;;;;;;;;;5076221;28;20078;-84
2022/05/05 02:50:16;;;;;;;21.23;14.25;;;;;;;;;;5074812;28;20121;-85
2022/05/05 02:52:42;;;;;;;19.17;13.57;;;;;;;;;;5074657;28;20029;-86
2022/05/05 02:55:08;;;;;;;22.05;15.05;;;;;;;;;;5057053;28;20036;-86
2022/05/05 02:57:34;;;;;;;18.60;14.02;;;;;;;;;;5057904;28;20028;-86
2022/05/05 02:59:59;;;;;;;20.80;13.75;;;;;;;;;;5057132;28;20097;-87
2022/05/05 03:02:25;;;;;;;22.55;13.60;;;;;;;;;;5076381;28;20526;-86
2022/05/05 03:04:51;;;;;;;20.60;13.30;;;;;;;;;;5056839;28;20024;-86
2022/05/05 03:07:17;;;;;;;19.10;12.93;;;;;;;;;;5057298;28;20032;-85
2022/05/05 03:09:43;;;;;;;19.73;13.88;;;;;;;;;;5056443;28;20116;-85
2022/05/05 03:12:10;;;;;;;20.45;13.93;;;;;;;;;;5057742;28;20025;-85
2022/05/05 03:14:36;;;;;;;19.15;14.00;;;;;;;;;;5056593;28;20036;-86
2022/05/05 03:17:03;;;;;;;19.83;13.25;;;;;;;;;;5056958;28;20502;-86
2022/05/05 03:19:29;;;;;;;23.85;13.75;;;;;;;;;;5074660;28;20499;-87
2022/05/05 03:21:55;;;;;;;19.98;13.30;;;;;;;;;;5056824;28;20033;-85
2022/05/05 03:24:21;;;;;;;18.23;12.98;;;;;;;;;;5075246;28;20039;-86
2022/05/05 03:26:48;;;;;;;21.88;12.77;;;;;;;;;;5057814;28;20137;-85
2022/05/05 03:29:14;;;;;;;17.05;13.32;;;;;;;;;;5056298;28;20032;-85
2022/05/05 03:31:40;;;;;;;19.73;13.10;;;;;;;;;;5056291;28;20064;-86
2022/05/05 03:34:05;;;;;;;21.52;13.90;;;;;;;;;;5056228;28;20518;-87
2022/05/05 03:36:31;;;;;;;21.65;14.27;;;;;;;;;;5056588;28;20032;-87
2022/05/05 03:38:57;;;;;;;18.33;12.60;;;;;;;;;;5056391;28;20075;-88
2022/05/05 03:41:23;;;;;;;21.23;13.20;;;;;;;;;;5055713;28;20028;-86
2022/05/05 03:43:49;;;;;;;23.63;14.77;;;;;;;;;;5056034;28;20400;-86
2022/05/05 03:46:15;;;;;;;19.40;13.07;;;;;;;;;;5039854;28;20043;-85
2022/05/05 03:48:40;;;;;;;21.98;14.52;;;;;;;;;;5056602;28;20032;-86
2022/05/05 03:51:06;;;;;;;17.73;13.13;;;;;;;;;;5056206;28;20036;-85
2022/05/05 03:53:33;;;;;;;17.65;12.77;;;;;;;;;;5073845;28;20063;-86
2022/05/05 03:55:59;;;;;;;18.50;12.68;;;;;;;;;;5055612;28;20488;-81
2022/05/05 03:58:28;;;;;;;17.48;12.98;;;;;;;;;;5055276;28;20040;-86
2022/05/05 04:00:53;;;;;;;19.50;13.40;;;;;;;;;;5056587;28;20029;-85
2022/05/05 04:03:31;;;;;;;19.30;13.30;;;;;;;;;;5074151;28;20502;-85
2022/05/05 04:06:04;;;;;;;16.55;12.48;;;;;;;;;;5055943;28;20036;-85
2022/05/05 04:08:30;;;;;;;23.52;13.57;;;;;;;;;;5055337;28;20123;-83
2022/05/05 04:11:00;;;;;;;16.67;12.32;;;;;;;;;;5055807;28;20036;-87
2022/05/05 04:13:26;;;;;;;17.83;12.35;;;;;;;;;;5040054;28;20063;-85
2022/05/05 04:15:52;;;;;;;25.13;13.75;;;;;;;;;;5055982;28;20127;-86
2022/05/05 04:18:17;;;;;;;17.50;12.63;;;;;;;;;;5073903;28;20028;-88
2022/05/05 04:20:43;;;;;;;19.90;12.23;;;;;;;;;;5071764;28;20078;-85
2022/05/05 04:23:10;;;;;;;18.88;12.40;;;;;;;;;;5072621;28;20126;-84
2022/05/05 04:25:39;;;;;;;22.00;12.68;;;;;;;;;;5055092;28;20035;-85
2022/05/05 04:28:07;;;;;;;17.30;11.85;;;;;;;;;;5054874;28;20479;-88
2022/05/05 04:30:32;;;;;;;22.60;12.45;;;;;;;;;;5055375;28;20040;-84
2022/05/05 04:32:58;;;;;;;17.92;11.63;;;;;;;;;;5071809;28;20140;-85
2022/05/05 04:35:23;;;;;;;15.07;11.10;;;;;;;;;;5055315;28;20041;-84
2022/05/05 04:37:49;;;;;;;17.92;12.35;;;;;;;;;;5055525;28;20033;-83
2022/05/05 04:40:15;;;;;;;17.42;11.30;;;;;;;;;;5055987;28;20415;-85
2022/05/05 04:42:40;;;;;;;19.27;12.00;;;;;;;;;;5038173;28;20032;-86
2022/05/05 04:45:06;;;;;;;14.25;11.10;;;;;;;;;;5055325;28;20039;-84
2022/05/05 04:47:35;;;;;;;15.65;10.77;;;;;;;;;;5056567;28;20048;-85
2022/05/05 04:50:01;;;;;;;14.55;10.80;;;;;;;;;;5055120;28;20419;-86
2022/05/05 04:52:27;;;;;;;18.30;10.85;;;;;;;;;;5055656;28;20036;-85
2022/05/05 04:54:53;;;;;;;16.08;11.75;;;;;;;;;;5054684;28;20115;-81
2022/05/05 04:57:18;;;;;;;17.88;11.40;;;;;;;;;;5055295;28;20078;-86
2022/05/05 04:59:44;;;;;;;16.13;10.77;;;;;;;;;;5072995;28;20036;-86
2022/05/05 05:02:10;;;;;;;16.73;11.48;;;;;;;;;;5055365;28;20028;-85
2022/05/05 05:04:43;;;;;;;17.48;11.15;;;;;;;;;;5056370;28;20032;-87
2022/05/05 05:07:09;;;;;;;19.38;11.15;;;;;;;;;;5056655;28;20049;-85
2022/05/05 05:09:35;;;;;;;18.52;11.05;;;;;;;;;;5054761;28;20115;-86
2022/05/05 05:12:01;;;;;;;22.65;11.52;;;;;;;;;;5055445;28;20226;-85
2022/05/05 05:14:26;;;;;;;18.73;11.20;;;;;;;;;;5055650;28;20473;-85
2022/05/05 05:16:55;;;;;;;17.58;11.27;;;;;;;;;;5074235;28;20035;-84
2022/05/05 05:19:20;;;;;;;17.67;11.40;;;;;;;;;;5056155;28;20033;-86
2022/05/05 05:21:46;;;;;;;15.10;11.20;;;;;;;;;;5073066;28;20025;-84
2022/05/05 05:24:13;;;;;;;15.80;10.98;;;;;;;;;;5054061;28;20519;-85
2022/05/05 05:26:39;;;;;;;17.75;10.90;;;;;;;;;;5054120;28;20033;-85
2022/05/05 05:29:04;;;;;;;18.38;12.57;;;;;;;;;;5054478;28;20047;-86
2022/05/05 05:31:30;;;;;;;14.77;10.80;;;;;;;;;;5072746;28;20087;-84
2022/05/05 05:33:56;;;;;;;19.95;11.38;;;;;;;;;;5076514;28;20059;-85
2022/05/05 05:36:21;;;;;;;17.30;11.05;;;;;;;;;;5078464;28;20027;-83
2022/05/05 05:38:47;;;;;;;22.83;11.45;;;;;;;;;;5078243;28;20449;-85
2022/05/05 05:41:12;;;;;;;16.10;11.43;;;;;;;;;;5062597;28;20025;-85
2022/05/05 05:43:41;;;;;;;15.00;11.13;;;;;;;;;;5079254;28;20036;-83
2022/05/05 05:46:06;;;;;;;17.92;12.25;;;;;;;;;;5078124;28;20032;-85
2022/05/05 05:48:32;;;;;;;23.45;12.40;;;;;;;;;;5059184;28;20556;-84
2022/05/05 05:50:58;;;;;;;18.05;12.10;;;;;;;;;;5072541;28;20136;-83
2022/05/05 05:53:24;;;;;;;14.98;10.50;;;;;;;;;;5054912;28;20029;-83
2022/05/05 05:55:51;;;;;;;19.50;11.13;;;;;;;;;;5071773;28;20048;-81
2022/05/05 05:58:16;;;;;;;16.65;10.75;;;;;;;;;;5052038;28;20439;-82
2022/05/05 06:00:42;;;;;;;18.33;11.00;;;;;;;;;;5073532;28;20322;-82
2022/05/05 06:05:52;;;;;;;15.32;10.48;;;;;;;;;;5073699;28;20094;-83
2022/05/05 06:08:17;;;;;;;15.65;10.85;;;;;;;;;;5056363;28;20024;-87
2022/05/05 06:10:43;;;;;;;15.02;11.15;;;;;;;;;;5057231;28;20025;-83
2022/05/05 06:13:09;;;;;;;19.55;11.43;;;;;;;;;;5057880;28;20063;-85
2022/05/05 06:15:35;;;;;;;16.92;11.85;;;;;;;;;;5052599;28;20082;-82
2022/05/05 06:18:00;;;;;;;18.33;13.38;;;;;;;;;;5053033;28;20036;-81
2022/05/05 06:20:26;;;;;;;17.23;11.55;;;;;;;;;;5052871;28;20048;-80
2022/05/05 06:22:52;;;;;;;17.52;9.50;;;;;;;;;;5063074;28;20036;-84
2022/05/05 06:25:20;;;;;;;18.88;11.38;;;;;;;;;;5052214;28;20036;-83
2022/05/05 06:27:48;;;;;;;14.32;10.23;;;;;;;;;;5067928;28;20096;-79
2022/05/05 06:30:14;;;;;;;18.23;10.38;;;;;;;;;;5046862;28;20385;-83
2022/05/05 06:32:41;;;;;;;13.13;9.60;;;;;;;;;;5056369;28;20036;-82
2022/05/05 06:35:07;;;;;;;14.25;10.52;;;;;;;;;;5071674;28;20025;-80
2022/05/05 06:37:32;;;;;;;26.25;10.82;;;;;;;;;;5069528;28;20510;-81
2022/05/05 06:39:58;;;;;;;16.50;9.32;;;;;;;;;;5054529;28;20032;-81
2022/05/05 06:42:24;;;;;;;13.10;9.13;;;;;;;;;;5054530;28;20039;-82
2022/05/05 06:44:49;;;;;;;22.85;8.75;;;;;;;;;;5055044;28;20070;-81
2022/05/05 06:47:15;;;;;;;16.17;10.02;;;;;;;;;;5050806;28;20056;-82
2022/05/05 06:49:40;;;;;;;16.38;10.05;;;;;;;;;;5072064;28;20032;-79
2022/05/05 06:52:07;;;;;;;21.20;10.35;;;;;;;;;;5052968;28;20024;-79
2022/05/05 06:54:33;;;;;;;12.65;10.10;;;;;;;;;;5053099;28;20070;-79
2022/05/05 06:57:05;;;;;;;12.68;9.55;;;;;;;;;;5066295;28;20085;-82
2022/05/05 06:59:30;;;;;;;;;;;;;;;;;;5030581;28;20032;-80
2022/05/05 07:02:01;;;;;;;12.90;9.07;;;;;;;;;;5070898;28;19923;-82
2022/05/05 07:07:22;;;;;;;12.50;9.65;;;;;;;;;;5070779;28;20143;-81
2022/05/05 07:12:33;;;;;;;16.65;10.55;;;;;;;;;;5071669;28;20116;-85
2022/05/05 07:14:59;;;;;;;23.10;11.90;;;;;;;;;;5072218;28;20040;-85
2022/05/05 07:17:25;;;;;;;16.10;9.85;;;;;;;;;;5049833;28;20331;-82
2022/05/05 07:19:51;;;;;;;14.27;9.75;;;;;;;;;;5066389;28;20122;-82
2022/05/05 07:23:12;;;;;;;12.35;9.60;;;;;;;;;;5072876;28;20642;-83
2022/05/05 07:25:42;;;;;;;19.35;10.70;;;;;;;;;;4948825;28;20097;-80
2022/05/05 07:28:08;;;;;;;14.50;9.77;;;;;;;;;;4977463;28;20046;-81
2022/05/05 07:30:34;;;;;;;11.93;9.02;;;;;;;;;;5021230;28;20086;-81
2022/05/05 07:33:19;;;;;;;14.75;10.30;;;;;;;;;;5052735;28;20056;-81
2022/05/05 07:35:47;;;;;;;12.52;9.10;;;;;;;;;;5047804;28;20037;-81
2022/05/05 07:38:22;;;;;;;17.50;10.43;;;;;;;;;;5048339;28;20386;-79
2022/05/05 07:40:51;;;;;;;11.93;10.00;;;;;;;;;;5031591;28;20415;-80
2022/05/05 07:43:28;;;;;;;20.33;11.77;;;;;;;;;;5048590;28;20044;-83
2022/05/05 07:45:54;;;;;;;14.73;10.20;;;;;;;;;;5033203;28;20033;-84
2022/05/05 07:48:20;;;;;;;12.73;10.80;;;;;;;;;;5051616;28;20392;-84
2022/05/05 07:50:51;;;;;;;19.27;11.15;;;;;;;;;;5047957;28;20052;-78
2022/05/05 07:53:40;;;;;;;15.15;10.80;;;;;;;;;;5033044;28;20119;-80
2022/05/05 07:56:06;;;;;;;18.52;11.02;;;;;;;;;;5045392;28;20041;-79
2022/05/05 07:58:57;;;;;;;17.27;11.35;;;;;;;;;;5042087;28;20400;-77
2022/05/05 08:01:28;;;;;;;16.40;10.73;;;;;;;;;;5026656;28;20067;-78
2022/05/05 08:03:54;;;;;;;14.20;11.23;;;;;;;;;;5033358;28;20053;-77
2022/05/05 08:06:23;;;;;;;15.45;11.00;;;;;;;;;;5053738;28;20083;-76
2022/05/05 08:08:51;;;;;;;16.27;11.27;;;;;;;;;;5057392;28;20044;-82
2022/05/05 08:11:35;;;;;;;18.75;12.25;;;;;;;;;;5049436;28;20025;-79
2022/05/05 08:14:53;;;;;;;17.15;10.48;;;;;;;;;;5049909;28;20024;-82
2022/05/05 08:17:24;;;;;;;14.88;11.15;;;;;;;;;;5047398;28;20100;-79
2022/05/05 08:20:26;;;;;;;19.42;12.00;;;;;;;;;;5050829;28;20036;-81
2022/05/05 08:23:04;;;;;;;24.58;12.20;;;;;;;;;;5052659;28;20051;-81
2022/05/05 08:28:56;;;;;;;18.23;11.63;;;;;;;;;;5071957;28;20039;-79
2022/05/05 08:31:48;;;;;;;15.73;12.20;;;;;;;;;;5067443;28;20060;-81
2022/05/05 08:34:15;;;;;;;19.48;11.57;;;;;;;;;;5051488;28;20044;-80
2022/05/05 08:36:41;;;;;;;13.07;10.60;;;;;;;;;;5068784;28;20035;-81
2022/05/05 08:39:45;;;;;;;;;;;;;;;;;;;;;
2022/05/05 08:42:41;;;;;;;20.93;13.07;;;;;;;;;;5026000;28;20151;-80
2022/05/05 08:45:10;;;;;;;17.67;11.23;;;;;;;;;;5069173;28;20040;-79
2022/05/05 08:47:37;;;;;;;19.33;12.38;;;;;;;;;;5065512;28;20036;-80
2022/05/05 08:50:15;;;;;;;17.60;11.60;;;;;;;;;;5048972;28;20035;-79
2022/05/05 08:52:53;;;;;;;18.08;11.25;;;;;;;;;;5033788;28;20029;-77
2022/05/05 08:55:20;;;;;;;17.52;11.77;;;;;;;;;;5047205;28;20373;-80
2022/05/05 08:57:47;;;;;;;19.40;12.25;;;;;;;;;;5049350;28;20020;-80
2022/05/05 09:00:16;;;;;;;25.15;11.98;;;;;;;;;;5063557;28;20078;-79
2022/05/05 09:02:43;;;;;;;17.95;12.32;;;;;;;;;;5045825;28;20020;-79
2022/05/05 09:05:09;;;;;;;15.73;10.95;;;;;;;;;;5043701;28;20024;-80
2022/05/05 09:07:49;;;;;;;18.73;11.98;;;;;;;;;;5070265;28;20537;-80
2022/05/05 09:10:20;;;;;;;18.58;12.13;;;;;;;;;;5070395;28;20059;-81
2022/05/05 09:13:01;;;;;;;14.52;11.05;;;;;;;;;;5034831;28;20392;-81
2022/05/05 09:15:37;;;;;;;17.17;11.90;;;;;;;;;;5050142;28;20036;-82
2022/05/05 09:18:15;;;;;;;18.98;12.15;;;;;;;;;;5052882;28;20028;-79
2022/05/05 09:20:42;;;;;;;16.38;11.57;;;;;;;;;;5067350;28;20031;-80
2022/05/05 09:23:09;;;;;;;20.48;14.10;;;;;;;;;;5045816;28;20536;-82
2022/05/05 09:25:47;;;;;;;21.70;13.77;;;;;;;;;;5032059;28;20064;-79
2022/05/05 09:28:24;;;;;;;19.63;13.15;;;;;;;;;;5047246;28;20048;-80
2022/05/05 09:30:51;;;;;;;19.92;13.95;;;;;;;;;;5063497;28;20109;-79
2022/05/05 09:33:37;;;;;;;22.20;14.23;;;;;;;;;;5044696;28;20040;-80
2022/05/05 09:36:13;;;;;;;26.10;15.13;;;;;;;;;;5031432;28;20550;-82
2022/05/05 09:38:54;;;;;;;26.98;18.00;;;;;;;;;;5069709;28;20089;-82
2022/05/05 09:41:28;;;;;;;26.60;17.50;;;;;;;;;;5063622;28;20099;-84
2022/05/05 09:44:12;;;;;;;25.17;19.00;;;;;;;;;;5051593;28;20028;-82
2022/05/05 09:46:39;;;;;;;27.40;20.10;;;;;;;;;;5072659;28;20052;-83
2022/05/05 09:49:09;;;;;;;31.85;21.52;;;;;;;;;;5048852;28;20025;-84
2022/05/05 09:51:40;;;;;;;31.63;21.98;;;;;;;;;;5066451;28;20036;-82
2022/05/05 09:59:46;;;;;;;31.75;24.42;;;;;;;;;;5066241;28;20349;-84
2022/05/05 10:04:00;;;;;;;35.77;25.13;;;;;;;;;;5052029;28;20036;-82
2022/05/05 10:05:08;;;;;;;41.17;26.00;;;;;;;;;;5054206;28;20438;-86
2022/05/05 10:07:38;;;;;;;44.75;27.10;;;;;;;;;;5053065;28;20042;-81
2022/05/05 10:10:06;;;;;;;39.97;25.33;;;;;;;;;;5039747;28;20131;-81
2022/05/05 10:12:33;;;;;;;37.55;25.73;;;;;;;;;;5039733;28;20080;-80
2022/05/05 10:15:00;;;;;;;38.10;26.25;;;;;;;;;;5057682;28;20472;-78
2022/05/05 10:17:25;;;;;;;48.65;27.30;;;;;;;;;;5038709;28;20038;-79
2022/05/05 10:19:52;;;;;;;37.47;26.90;;;;;;;;;;5042271;28;20043;-81
2022/05/05 10:22:30;;;;;;;49.63;31.73;;;;;;;;;;5048706;28;20025;-82
2022/05/05 10:25:11;;;;;;;48.88;29.10;;;;;;;;;;5051491;28;20075;-80
2022/05/05 10:27:44;;;;;;;35.83;25.63;;;;;;;;;;5050555;28;20028;-82
2022/05/05 10:30:34;;;;;;;34.45;24.95;;;;;;;;;;5063424;28;20152;-83
2022/05/05 10:33:20;;;;;;;34.85;24.67;;;;;;;;;;5051216;28;20070;-80
2022/05/05 10:35:47;;;;;;;31.42;23.35;;;;;;;;;;5046118;28;20124;-81
2022/05/05 10:38:42;;;;;;;27.60;21.40;;;;;;;;;;5041702;28;20111;-80
2022/05/05 10:41:40;;;;;;;30.17;22.92;;;;;;;;;;5027416;28;20452;-81
2022/05/05 10:44:19;;;;;;;30.83;20.33;;;;;;;;;;5048744;28;20028;-80
2022/05/05 10:47:05;;;;;;;28.88;21.10;;;;;;;;;;5065368;28;20123;-79
2022/05/05 10:49:37;;;;;;;31.73;21.10;;;;;;;;;;5045695;28;20063;-80
2022/05/05 10:52:12;;;;;;;28.90;21.00;;;;;;;;;;5061799;28;20074;-80
2022/05/05 10:54:45;;;;;;;31.05;20.10;;;;;;;;;;5061690;28;20028;-82
2022/05/05 10:57:26;;;;;;;25.85;19.52;;;;;;;;;;5043031;28;20476;-82
2022/05/05 11:00:10;;;;;;;29.48;18.40;;;;;;;;;;5060813;28;20024;-81
2022/05/05 11:02:38;;;;;;;25.02;18.58;;;;;;;;;;5039483;28;20029;-81
2022/05/05 11:05:24;;;;;;;23.63;17.75;;;;;;;;;;5058207;28;20096;-80
2022/05/05 11:07:51;;;;;;;31.73;21.85;;;;;;;;;;5044498;28;20447;-84
2022/05/05 11:10:42;;;;;;;28.42;20.75;;;;;;;;;;5045024;28;20472;-84
2022/05/05 11:13:28;;;;;;;20.98;17.73;;;;;;;;;;5062379;28;20120;-83
2022/05/05 11:22:10;;;;;;;22.17;16.38;;;;;;;;;;5062075;28;20125;-80
2022/05/05 11:24:38;;;;;;;21.40;17.90;;;;;;;;;;5034275;28;20044;-82
2022/05/05 11:27:13;;;;;;;22.42;17.23;;;;;;;;;;5047268;28;20047;-80
2022/05/05 11:29:39;;;;;;;21.08;15.10;;;;;;;;;;5059261;28;20115;-82
2022/05/05 11:32:07;;;;;;;22.73;15.20;;;;;;;;;;5066482;28;20054;-78
2022/05/05 11:34:36;;;;;;;21.45;14.75;;;;;;;;;;5052821;28;20036;-83
2022/05/05 11:37:05;;;;;;;23.10;16.58;;;;;;;;;;5068189;28;20040;-81
2022/05/05 11:39:32;;;;;;;18.77;14.13;;;;;;;;;;5052033;28;20038;-80
2022/05/05 11:42:10;;;;;;;18.15;12.18;;;;;;;;;;5052479;28;20048;-85
2022/05/05 11:44:43;;;;;;;19.85;12.30;;;;;;;;;;5074370;28;20837;-84
2022/05/05 11:47:11;;;;;;;18.83;11.85;;;;;;;;;;5051822;28;20513;-81
2022/05/05 11:49:47;;;;;;;18.08;12.05;;;;;;;;;;5052783;28;20059;-82
2022/05/05 11:52:39;;;;;;;14.93;11.05;;;;;;;;;;5057551;28;20024;-86
2022/05/05 11:55:22;;;;;;;14.80;9.35;;;;;;;;;;5057698;28;20028;-82
2022/05/05 11:57:50;;;;;;;19.63;10.55;;;;;;;;;;5053690;28;20040;-83
2022/05/05 12:03:03;;;;;;;17.70;13.82;;;;;;;;;;5069061;28;20084;-85
2022/05/05 12:05:29;;;;;;;16.63;13.10;;;;;;;;;;5046432;28;20480;-82
2022/05/05 12:07:59;;;;;;;16.60;11.93;;;;;;;;;;5022512;28;20049;-81
2022/05/05 12:10:35;;;;;;;17.67;13.50;;;;;;;;;;5048953;28;20025;-82
2022/05/05 12:13:28;;;;;;;13.52;11.07;;;;;;;;;;5031412;28;20041;-86
2022/05/05 12:15:55;;;;;;;14.60;11.93;;;;;;;;;;5048188;28;20714;-79
2022/05/05 12:18:21;;;;;;;14.23;11.48;;;;;;;;;;5049335;28;20025;-81
2022/05/05 12:20:49;;;;;;;16.95;10.75;;;;;;;;;;5041486;28;20479;-78
2022/05/05 12:23:17;;;;;;;12.32;11.02;;;;;;;;;;5030237;28;20032;-77
2022/05/05 12:25:44;;;;;;;17.95;12.27;;;;;;;;;;5034930;28;20033;-81
2022/05/05 12:28:48;;;;;;;19.10;12.00;;;;;;;;;;5047468;28;20433;-79
2022/05/05 12:31:24;;;;;;;17.23;12.23;;;;;;;;;;5029630;28;20393;-82
2022/05/05 12:34:39;;;;;;;15.85;12.23;;;;;;;;;;5036676;28;20044;-82
2022/05/05 12:37:14;;;;;;;15.23;13.23;;;;;;;;;;5034334;28;20088;-82
2022/05/05 12:39:54;;;;;;;16.23;12.88;;;;;;;;;;5052685;28;20013;-79
2022/05/05 12:42:29;;;;;;;22.30;12.43;;;;;;;;;;5046978;28;20021;-81
2022/05/05 12:44:58;;;;;;;17.15;12.32;;;;;;;;;;5033609;28;20036;-77
2022/05/05 12:47:26;;;;;;;15.75;12.13;;;;;;;;;;5031474;28;20025;-79
2022/05/05 12:49:52;;;;;;;17.42;12.43;;;;;;;;;;5048771;28;20029;-80
2022/05/05 13:00:55;;;;;;;15.05;12.45;;;;;;;;;;5050229;28;20048;-78
2022/05/05 13:03:22;;;;;;;18.77;11.93;;;;;;;;;;5050356;28;20358;-81
2022/05/05 13:05:48;;;;;;;15.75;12.15;;;;;;;;;;5050944;28;20037;-80
2022/05/05 13:08:18;;;;;;;18.17;12.90;;;;;;;;;;5049901;28;20400;-83
2022/05/05 13:10:44;;;;;;;17.20;12.65;;;;;;;;;;5047314;28;20025;-78
2022/05/05 13:13:09;;;;;;;16.80;12.23;;;;;;;;;;5049641;28;20033;-81
2022/05/05 13:15:35;;;;;;;16.15;12.35;;;;;;;;;;5032351;28;20040;-78
2022/05/05 13:18:03;;;;;;;20.73;12.82;;;;;;;;;;5041287;28;20142;-79
2022/05/05 13:20:29;;;;;;;18.70;12.65;;;;;;;;;;5044771;28;20033;-79
2022/05/05 13:22:55;;;;;;;25.17;14.43;;;;;;;;;;5050335;28;20271;-80
2022/05/05 13:25:21;;;;;;;19.92;12.10;;;;;;;;;;5048877;28;20084;-81
2022/05/05 13:27:47;;;;;;;21.17;10.80;;;;;;;;;;5030636;28;20717;-80
2022/05/05 13:30:13;;;;;;;14.48;10.75;;;;;;;;;;5040778;28;20034;-77
2022/05/05 13:32:43;;;;;;;14.07;11.02;;;;;;;;;;5047451;28;20762;-81
2022/05/05 13:35:10;;;;;;;14.50;11.40;;;;;;;;;;5044898;28;20094;-79
2022/05/05 13:37:40;;;;;;;12.38;10.30;;;;;;;;;;5046867;28;20033;-79
2022/05/05 13:40:08;;;;;;;13.00;10.90;;;;;;;;;;5046653;28;20042;-78
2022/05/05 13:42:36;;;;;;;18.25;10.63;;;;;;;;;;5042150;28;20017;-79
2022/05/05 13:45:01;;;;;;;13.82;11.20;;;;;;;;;;5030136;28;20024;-78
2022/05/05 13:47:28;;;;;;;16.20;11.70;;;;;;;;;;5048040;28;20023;-81
2022/05/05 13:49:53;;;;;;;13.15;11.13;;;;;;;;;;5050089;28;20492;-82
2022/05/05 13:52:19;;;;;;;15.75;12.10;;;;;;;;;;5045001;28;20063;-81
2022/05/05 13:54:47;;;;;;;11.60;10.50;;;;;;;;;;5048095;28;20068;-77
2022/05/05 13:57:14;;;;;;;15.73;11.57;;;;;;;;;;5032365;28;20416;-78
2022/05/05 13:59:44;;;;;;;14.88;11.23;;;;;;;;;;5048951;28;20028;-79
2022/05/05 14:02:10;;;;;;;11.13;10.00;;;;;;;;;;5052564;28;20100;-80
2022/05/05 14:04:36;;;;;;;12.82;9.75;;;;;;;;;;5047238;28;20037;-78
2022/05/05 14:07:03;;;;;;;11.25;8.10;;;;;;;;;;5031122;28;20131;-80
2022/05/05 14:12:15;;;;;;;8.40;7.55;;;;;;;;;;5053327;28;20093;-77
2022/05/05 14:14:42;;;;;;;9.23;7.88;;;;;;;;;;5036455;28;20082;-78
2022/05/05 14:17:10;;;;;;;13.10;9.13;;;;;;;;;;5052375;28;20031;-79
2022/05/05 14:19:40;;;;;;;13.43;11.43;;;;;;;;;;5052414;28;20399;-78
2022/05/05 14:22:06;;;;;;;18.20;13.02;;;;;;;;;;5053340;28;20435;-80
2022/05/05 14:24:34;;;;;;;13.98;12.57;;;;;;;;;;5056855;28;20070;-81
2022/05/05 14:27:01;;;;;;;21.10;13.27;;;;;;;;;;5037544;28;20025;-82
2022/05/05 14:29:27;;;;;;;18.50;12.02;;;;;;;;;;5052544;28;20046;-84
2022/05/05 14:31:56;;;;;;;16.08;11.88;;;;;;;;;;5049969;28;20049;-81
2022/05/05 14:34:21;;;;;;;20.58;12.02;;;;;;;;;;5036810;28;20036;-83
2022/05/05 14:36:50;;;;;;;14.27;11.02;;;;;;;;;;5052825;28;20353;-86
2022/05/05 14:39:16;;;;;;;15.30;10.07;;;;;;;;;;5035580;28;20076;-83
2022/05/05 14:41:46;;;;;;;19.40;12.27;;;;;;;;;;5055258;28;20116;-83
2022/05/05 14:44:14;;;;;;;14.03;12.47;;;;;;;;;;5049454;28;20456;-85
2022/05/05 14:46:41;;;;;;;20.15;13.45;;;;;;;;;;5050814;28;20688;-82
2022/05/05 14:49:13;;;;;;;15.10;11.50;;;;;;;;;;5055992;28;20029;-85
2022/05/05 14:51:38;;;;;;;16.02;11.38;;;;;;;;;;5035552;28;20017;-81
2022/05/05 14:54:05;;;;;;;17.83;12.82;;;;;;;;;;5051971;28;20032;-83
2022/05/05 14:56:31;;;;;;;21.13;12.27;;;;;;;;;;5053311;28;20028;-82
2022/05/05 14:58:57;;;;;;;15.25;11.02;;;;;;;;;;5050746;28;20028;-81
2022/05/05 15:01:22;;;;;;;11.90;9.32;;;;;;;;;;5047694;28;20025;-81
2022/05/05 15:03:48;;;;;;;16.88;9.07;;;;;;;;;;5051439;28;20435;-82
2022/05/05 15:06:15;;;;;;;12.13;10.68;;;;;;;;;;5043330;28;20420;-80
2022/05/05 15:08:42;;;;;;;16.23;10.93;;;;;;;;;;5017592;28;20029;-80
2022/05/05 15:11:07;;;;;;;12.68;9.50;;;;;;;;;;5051842;28;20029;-82
2022/05/05 15:13:33;;;;;;;14.15;10.23;;;;;;;;;;5032428;28;20090;-82
2022/05/05 15:15:59;;;;;;;13.40;10.55;;;;;;;;;;5055963;28;20024;-81
2022/05/05 15:18:24;;;;;;;16.10;11.73;;;;;;;;;;5047697;28;20171;-79
2022/05/05 15:20:50;;;;;;;13.75;10.80;;;;;;;;;;5061115;28;20492;-79